1TN4 weather

Methodist Healthcare Heliport
Dyersburg, Tennessee, United States

Public forecast

Using degrees Fahrenheit for public forecast. Weather courtesy of forecast.io.

METAR (pilot weather report)

Closest report is Dyersburg Regional Airport, 3.3 nm (6.2 km) SSW. Retrieved 2019/05/21 10:56 UTC (7 minutes ago):

KDYR 211056Z AUTO 13005KT 10SM CLR 20/18 A2984 RMK AO2 SLP115 T02000178 PNO $

TAF (pilot weather forecast)

Closest forecast is McKellar-Sipes Regional Airport, 35.2 nm (65.2 km) SE. Retrieved 2019/05/21 06:22 UTC (5 hours ago):

TAF KMKL 210520Z 2106/2206 14005KT P6SM FEW050 BKN250 FM211500 18012G18KT P6SM SCT045 FM220000 17014KT P6SM OVC250